sensor_id;sensor_type;location;lat;lon;timestamp;P1;durP1;ratioP1;P2;durP2;ratioP2
11539;SDS011;5826;54.756;9.192;2023-12-29T00:01:16;4.40;;;1.50;;
11539;SDS011;5826;54.756;9.192;2023-12-29T00:03:43;5.90;;;1.55;;
11539;SDS011;5826;54.756;9.192;2023-12-29T00:06:08;7.95;;;1.40;;
11539;SDS011;5826;54.756;9.192;2023-12-29T00:08:36;6.63;;;1.65;;
11539;SDS011;5826;54.756;9.192;2023-12-29T00:11:01;5.80;;;1.67;;
11539;SDS011;5826;54.756;9.192;2023-12-29T00:13:27;6.03;;;1.25;;
11539;SDS011;5826;54.756;9.192;2023-12-29T00:15:53;5.35;;;1.50;;
11539;SDS011;5826;54.756;9.192;2023-12-29T00:18:19;8.13;;;1.90;;
11539;SDS011;5826;54.756;9.192;2023-12-29T00:20:45;4.57;;;1.40;;
11539;SDS011;5826;54.756;9.192;2023-12-29T00:23:11;6.72;;;2.05;;
11539;SDS011;5826;54.756;9.192;2023-12-29T00:25:36;8.30;;;2.22;;
11539;SDS011;5826;54.756;9.192;2023-12-29T00:28:02;8.13;;;2.42;;
11539;SDS011;5826;54.756;9.192;2023-12-29T00:30:28;6.80;;;1.98;;
11539;SDS011;5826;54.756;9.192;2023-12-29T00:32:57;10.05;;;2.10;;
11539;SDS011;5826;54.756;9.192;2023-12-29T00:35:23;8.32;;;1.70;;
11539;SDS011;5826;54.756;9.192;2023-12-29T00:37:51;9.23;;;2.10;;
11539;SDS011;5826;54.756;9.192;2023-12-29T00:40:17;8.85;;;2.35;;
11539;SDS011;5826;54.756;9.192;2023-12-29T00:42:42;10.48;;;2.80;;
11539;SDS011;5826;54.756;9.192;2023-12-29T00:45:08;15.98;;;3.22;;
11539;SDS011;5826;54.756;9.192;2023-12-29T00:47:34;16.20;;;3.35;;
11539;SDS011;5826;54.756;9.192;2023-12-29T00:50:00;15.88;;;3.58;;
11539;SDS011;5826;54.756;9.192;2023-12-29T00:52:25;16.17;;;3.72;;
11539;SDS011;5826;54.756;9.192;2023-12-29T00:54:51;13.48;;;3.10;;
11539;SDS011;5826;54.756;9.192;2023-12-29T00:57:17;16.58;;;3.53;;
11539;SDS011;5826;54.756;9.192;2023-12-29T00:59:42;15.98;;;3.05;;
11539;SDS011;5826;54.756;9.192;2023-12-29T01:02:09;13.85;;;3.40;;
11539;SDS011;5826;54.756;9.192;2023-12-29T01:04:37;14.90;;;3.70;;
11539;SDS011;5826;54.756;9.192;2023-12-29T01:07:04;13.93;;;3.10;;
11539;SDS011;5826;54.756;9.192;2023-12-29T01:09:29;18.70;;;3.58;;
11539;SDS011;5826;54.756;9.192;2023-12-29T01:11:55;12.88;;;3.08;;
11539;SDS011;5826;54.756;9.192;2023-12-29T01:14:20;12.02;;;3.08;;
11539;SDS011;5826;54.756;9.192;2023-12-29T01:16:46;14.85;;;3.40;;
11539;SDS011;5826;54.756;9.192;2023-12-29T01:19:11;16.63;;;4.05;;
11539;SDS011;5826;54.756;9.192;2023-12-29T01:21:37;17.15;;;3.42;;
11539;SDS011;5826;54.756;9.192;2023-12-29T01:24:03;13.80;;;3.40;;
11539;SDS011;5826;54.756;9.192;2023-12-29T01:26:29;11.93;;;3.15;;
11539;SDS011;5826;54.756;9.192;2023-12-29T01:28:55;16.77;;;3.92;;
11539;SDS011;5826;54.756;9.192;2023-12-29T01:31:21;14.43;;;3.60;;
11539;SDS011;5826;54.756;9.192;2023-12-29T01:33:47;12.57;;;3.30;;
11539;SDS011;5826;54.756;9.192;2023-12-29T01:36:18;13.65;;;3.03;;
11539;SDS011;5826;54.756;9.192;2023-12-29T01:38:44;15.05;;;3.55;;
11539;SDS011;5826;54.756;9.192;2023-12-29T01:41:10;20.42;;;4.13;;
11539;SDS011;5826;54.756;9.192;2023-12-29T01:43:35;19.23;;;4.13;;
11539;SDS011;5826;54.756;9.192;2023-12-29T01:46:01;13.30;;;3.97;;
11539;SDS011;5826;54.756;9.192;2023-12-29T01:48:26;17.23;;;3.83;;
11539;SDS011;5826;54.756;9.192;2023-12-29T01:50:52;20.65;;;4.25;;
11539;SDS011;5826;54.756;9.192;2023-12-29T01:53:19;18.10;;;3.92;;
11539;SDS011;5826;54.756;9.192;2023-12-29T01:55:45;15.75;;;3.20;;
11539;SDS011;5826;54.756;9.192;2023-12-29T01:58:11;19.63;;;4.32;;
11539;SDS011;5826;54.756;9.192;2023-12-29T02:00:37;19.90;;;4.07;;
11539;SDS011;5826;54.756;9.192;2023-12-29T02:03:04;16.73;;;4.10;;
11539;SDS011;5826;54.756;9.192;2023-12-29T02:05:29;19.02;;;4.40;;
11539;SDS011;5826;54.756;9.192;2023-12-29T02:07:56;20.02;;;5.10;;
11539;SDS011;5826;54.756;9.192;2023-12-29T02:10:23;18.35;;;4.95;;
11539;SDS011;5826;54.756;9.192;2023-12-29T02:12:49;23.05;;;4.88;;
11539;SDS011;5826;54.756;9.192;2023-12-29T02:15:16;20.90;;;5.43;;
11539;SDS011;5826;54.756;9.192;2023-12-29T02:17:44;22.38;;;5.22;;
11539;SDS011;5826;54.756;9.192;2023-12-29T02:20:17;21.80;;;4.70;;
11539;SDS011;5826;54.756;9.192;2023-12-29T02:22:43;25.75;;;6.15;;
11539;SDS011;5826;54.756;9.192;2023-12-29T02:25:09;24.05;;;5.32;;
11539;SDS011;5826;54.756;9.192;2023-12-29T02:27:43;24.10;;;5.20;;
11539;SDS011;5826;54.756;9.192;2023-12-29T02:30:29;25.00;;;5.90;;
11539;SDS011;5826;54.756;9.192;2023-12-29T02:33:04;26.08;;;5.78;;
11539;SDS011;5826;54.756;9.192;2023-12-29T02:35:32;20.67;;;5.00;;
11539;SDS011;5826;54.756;9.192;2023-12-29T02:38:02;21.85;;;5.45;;
11539;SDS011;5826;54.756;9.192;2023-12-29T02:40:28;24.10;;;5.53;;
11539;SDS011;5826;54.756;9.192;2023-12-29T02:42:54;23.13;;;6.30;;
11539;SDS011;5826;54.756;9.192;2023-12-29T02:45:20;26.17;;;5.85;;
11539;SDS011;5826;54.756;9.192;2023-12-29T02:47:45;24.35;;;6.70;;
11539;SDS011;5826;54.756;9.192;2023-12-29T02:50:12;22.73;;;5.28;;
11539;SDS011;5826;54.756;9.192;2023-12-29T02:52:38;24.70;;;6.07;;
11539;SDS011;5826;54.756;9.192;2023-12-29T02:55:03;24.80;;;6.10;;
11539;SDS011;5826;54.756;9.192;2023-12-29T02:57:29;27.42;;;6.55;;
11539;SDS011;5826;54.756;9.192;2023-12-29T02:59:55;23.45;;;5.85;;
11539;SDS011;5826;54.756;9.192;2023-12-29T03:02:21;23.63;;;5.70;;
11539;SDS011;5826;54.756;9.192;2023-12-29T03:04:46;32.53;;;6.90;;
11539;SDS011;5826;54.756;9.192;2023-12-29T03:07:12;28.23;;;6.95;;
11539;SDS011;5826;54.756;9.192;2023-12-29T03:09:37;25.73;;;6.53;;
11539;SDS011;5826;54.756;9.192;2023-12-29T03:12:03;28.35;;;6.70;;
11539;SDS011;5826;54.756;9.192;2023-12-29T03:14:29;28.08;;;6.05;;
11539;SDS011;5826;54.756;9.192;2023-12-29T03:16:54;29.10;;;6.32;;
11539;SDS011;5826;54.756;9.192;2023-12-29T03:19:20;27.25;;;6.22;;
11539;SDS011;5826;54.756;9.192;2023-12-29T03:21:46;24.08;;;6.43;;
11539;SDS011;5826;54.756;9.192;2023-12-29T03:24:11;30.48;;;7.15;;
11539;SDS011;5826;54.756;9.192;2023-12-29T03:26:37;26.27;;;6.63;;
11539;SDS011;5826;54.756;9.192;2023-12-29T03:29:02;24.67;;;6.43;;
11539;SDS011;5826;54.756;9.192;2023-12-29T03:31:28;19.52;;;6.18;;
11539;SDS011;5826;54.756;9.192;2023-12-29T03:33:53;17.90;;;5.25;;
11539;SDS011;5826;54.756;9.192;2023-12-29T03:36:18;18.33;;;5.10;;
11539;SDS011;5826;54.756;9.192;2023-12-29T03:38:44;14.00;;;4.53;;
11539;SDS011;5826;54.756;9.192;2023-12-29T03:41:09;22.40;;;4.93;;
11539;SDS011;5826;54.756;9.192;2023-12-29T03:43:35;16.23;;;4.43;;
11539;SDS011;5826;54.756;9.192;2023-12-29T03:46:00;18.27;;;4.43;;
11539;SDS011;5826;54.756;9.192;2023-12-29T03:48:26;27.85;;;5.95;;
11539;SDS011;5826;54.756;9.192;2023-12-29T03:50:51;26.13;;;6.13;;
11539;SDS011;5826;54.756;9.192;2023-12-29T03:53:17;23.45;;;5.25;;
11539;SDS011;5826;54.756;9.192;2023-12-29T03:55:44;27.30;;;5.82;;
11539;SDS011;5826;54.756;9.192;2023-12-29T03:58:09;29.23;;;6.63;;
11539;SDS011;5826;54.756;9.192;2023-12-29T04:00:35;23.33;;;5.28;;
11539;SDS011;5826;54.756;9.192;2023-12-29T04:03:01;25.25;;;6.07;;
11539;SDS011;5826;54.756;9.192;2023-12-29T04:05:26;20.95;;;5.57;;
11539;SDS011;5826;54.756;9.192;2023-12-29T04:07:52;26.83;;;6.03;;
11539;SDS011;5826;54.756;9.192;2023-12-29T04:10:17;28.63;;;6.18;;
11539;SDS011;5826;54.756;9.192;2023-12-29T04:12:43;23.15;;;5.32;;
11539;SDS011;5826;54.756;9.192;2023-12-29T04:15:09;27.35;;;5.97;;
11539;SDS011;5826;54.756;9.192;2023-12-29T04:17:34;26.73;;;5.68;;
11539;SDS011;5826;54.756;9.192;2023-12-29T04:20:00;25.27;;;5.22;;
11539;SDS011;5826;54.756;9.192;2023-12-29T04:22:25;19.77;;;5.15;;
11539;SDS011;5826;54.756;9.192;2023-12-29T04:24:51;23.45;;;5.47;;
11539;SDS011;5826;54.756;9.192;2023-12-29T04:27:16;26.38;;;6.00;;
11539;SDS011;5826;54.756;9.192;2023-12-29T04:29:45;24.25;;;5.47;;
11539;SDS011;5826;54.756;9.192;2023-12-29T04:32:11;23.95;;;5.53;;
11539;SDS011;5826;54.756;9.192;2023-12-29T04:34:36;25.25;;;5.65;;
11539;SDS011;5826;54.756;9.192;2023-12-29T04:37:02;30.10;;;6.30;;
11539;SDS011;5826;54.756;9.192;2023-12-29T04:39:27;23.33;;;5.60;;
11539;SDS011;5826;54.756;9.192;2023-12-29T04:41:53;27.42;;;5.55;;
11539;SDS011;5826;54.756;9.192;2023-12-29T04:44:18;28.08;;;6.53;;
11539;SDS011;5826;54.756;9.192;2023-12-29T04:46:44;23.67;;;6.15;;
11539;SDS011;5826;54.756;9.192;2023-12-29T04:49:09;25.33;;;5.95;;
11539;SDS011;5826;54.756;9.192;2023-12-29T04:51:35;24.52;;;5.00;;
11539;SDS011;5826;54.756;9.192;2023-12-29T04:54:00;28.17;;;5.95;;
11539;SDS011;5826;54.756;9.192;2023-12-29T04:56:26;20.75;;;4.93;;
11539;SDS011;5826;54.756;9.192;2023-12-29T04:58:51;24.02;;;5.75;;
11539;SDS011;5826;54.756;9.192;2023-12-29T05:01:17;26.83;;;5.70;;
11539;SDS011;5826;54.756;9.192;2023-12-29T05:03:42;25.67;;;5.80;;
11539;SDS011;5826;54.756;9.192;2023-12-29T05:06:08;24.67;;;5.28;;
11539;SDS011;5826;54.756;9.192;2023-12-29T05:08:33;25.52;;;5.75;;
11539;SDS011;5826;54.756;9.192;2023-12-29T05:10:59;27.88;;;6.20;;
11539;SDS011;5826;54.756;9.192;2023-12-29T05:13:25;18.08;;;4.60;;
11539;SDS011;5826;54.756;9.192;2023-12-29T05:15:50;19.92;;;4.90;;
11539;SDS011;5826;54.756;9.192;2023-12-29T05:18:16;22.65;;;5.05;;
11539;SDS011;5826;54.756;9.192;2023-12-29T05:20:41;23.45;;;5.65;;
11539;SDS011;5826;54.756;9.192;2023-12-29T05:23:08;23.85;;;5.30;;
11539;SDS011;5826;54.756;9.192;2023-12-29T05:25:33;20.77;;;4.95;;
11539;SDS011;5826;54.756;9.192;2023-12-29T05:27:59;23.90;;;5.25;;
11539;SDS011;5826;54.756;9.192;2023-12-29T05:30:24;22.73;;;5.13;;
11539;SDS011;5826;54.756;9.192;2023-12-29T05:32:51;20.67;;;4.22;;
11539;SDS011;5826;54.756;9.192;2023-12-29T05:35:17;26.45;;;4.80;;
11539;SDS011;5826;54.756;9.192;2023-12-29T05:37:42;18.55;;;4.25;;
11539;SDS011;5826;54.756;9.192;2023-12-29T05:40:08;22.40;;;4.78;;
11539;SDS011;5826;54.756;9.192;2023-12-29T05:42:33;22.75;;;4.70;;
11539;SDS011;5826;54.756;9.192;2023-12-29T05:44:59;19.27;;;4.90;;
11539;SDS011;5826;54.756;9.192;2023-12-29T05:47:24;20.08;;;4.88;;
11539;SDS011;5826;54.756;9.192;2023-12-29T05:49:50;20.20;;;4.82;;
11539;SDS011;5826;54.756;9.192;2023-12-29T05:52:15;16.95;;;4.72;;
11539;SDS011;5826;54.756;9.192;2023-12-29T05:54:41;26.02;;;5.13;;
11539;SDS011;5826;54.756;9.192;2023-12-29T05:57:06;23.73;;;4.93;;
11539;SDS011;5826;54.756;9.192;2023-12-29T05:59:32;21.75;;;5.10;;
11539;SDS011;5826;54.756;9.192;2023-12-29T06:01:57;22.65;;;5.28;;
11539;SDS011;5826;54.756;9.192;2023-12-29T06:04:23;28.50;;;4.78;;
11539;SDS011;5826;54.756;9.192;2023-12-29T06:06:48;18.63;;;4.93;;
11539;SDS011;5826;54.756;9.192;2023-12-29T06:09:14;23.05;;;5.07;;
11539;SDS011;5826;54.756;9.192;2023-12-29T06:11:39;21.23;;;5.25;;
11539;SDS011;5826;54.756;9.192;2023-12-29T06:14:05;24.80;;;5.45;;
11539;SDS011;5826;54.756;9.192;2023-12-29T06:16:31;16.70;;;4.38;;
11539;SDS011;5826;54.756;9.192;2023-12-29T06:18:56;26.63;;;5.75;;
11539;SDS011;5826;54.756;9.192;2023-12-29T06:21:22;18.33;;;4.45;;
11539;SDS011;5826;54.756;9.192;2023-12-29T06:23:47;26.95;;;5.88;;
11539;SDS011;5826;54.756;9.192;2023-12-29T06:26:14;26.35;;;5.57;;
11539;SDS011;5826;54.756;9.192;2023-12-29T06:28:40;23.13;;;4.93;;
11539;SDS011;5826;54.756;9.192;2023-12-29T06:31:06;19.77;;;4.85;;
11539;SDS011;5826;54.756;9.192;2023-12-29T06:33:31;20.05;;;4.85;;
11539;SDS011;5826;54.756;9.192;2023-12-29T06:35:57;19.27;;;4.65;;
11539;SDS011;5826;54.756;9.192;2023-12-29T06:38:22;18.73;;;4.88;;
11539;SDS011;5826;54.756;9.192;2023-12-29T06:40:48;18.85;;;5.10;;
11539;SDS011;5826;54.756;9.192;2023-12-29T06:43:14;20.85;;;4.88;;
11539;SDS011;5826;54.756;9.192;2023-12-29T06:45:39;17.33;;;4.65;;
11539;SDS011;5826;54.756;9.192;2023-12-29T06:48:05;20.27;;;5.13;;
11539;SDS011;5826;54.756;9.192;2023-12-29T06:50:30;19.92;;;5.00;;
11539;SDS011;5826;54.756;9.192;2023-12-29T06:52:56;20.30;;;5.13;;
11539;SDS011;5826;54.756;9.192;2023-12-29T06:55:21;21.08;;;5.43;;
11539;SDS011;5826;54.756;9.192;2023-12-29T06:57:47;23.50;;;4.85;;
11539;SDS011;5826;54.756;9.192;2023-12-29T07:00:12;22.35;;;5.63;;
11539;SDS011;5826;54.756;9.192;2023-12-29T07:02:38;26.73;;;5.35;;
11539;SDS011;5826;54.756;9.192;2023-12-29T07:05:05;26.10;;;5.63;;
11539;SDS011;5826;54.756;9.192;2023-12-29T07:07:31;26.95;;;5.60;;
11539;SDS011;5826;54.756;9.192;2023-12-29T07:09:57;18.10;;;5.13;;
11539;SDS011;5826;54.756;9.192;2023-12-29T07:12:22;23.60;;;4.90;;
11539;SDS011;5826;54.756;9.192;2023-12-29T07:14:48;20.83;;;4.75;;
11539;SDS011;5826;54.756;9.192;2023-12-29T07:17:13;21.27;;;5.00;;
11539;SDS011;5826;54.756;9.192;2023-12-29T07:19:39;25.35;;;5.57;;
11539;SDS011;5826;54.756;9.192;2023-12-29T07:22:04;21.27;;;5.00;;
11539;SDS011;5826;54.756;9.192;2023-12-29T07:24:31;20.80;;;5.65;;
11539;SDS011;5826;54.756;9.192;2023-12-29T07:26:57;21.50;;;5.38;;
11539;SDS011;5826;54.756;9.192;2023-12-29T07:29:23;21.90;;;5.78;;
11539;SDS011;5826;54.756;9.192;2023-12-29T07:31:48;29.65;;;6.88;;
11539;SDS011;5826;54.756;9.192;2023-12-29T07:34:14;21.42;;;5.72;;
11539;SDS011;5826;54.756;9.192;2023-12-29T07:36:39;24.67;;;5.70;;
11539;SDS011;5826;54.756;9.192;2023-12-29T07:39:05;27.75;;;6.00;;
11539;SDS011;5826;54.756;9.192;2023-12-29T07:41:31;22.35;;;4.85;;
11539;SDS011;5826;54.756;9.192;2023-12-29T07:43:57;23.85;;;5.72;;
11539;SDS011;5826;54.756;9.192;2023-12-29T07:46:23;23.33;;;5.90;;
11539;SDS011;5826;54.756;9.192;2023-12-29T07:48:50;21.52;;;5.20;;
11539;SDS011;5826;54.756;9.192;2023-12-29T07:51:15;18.05;;;5.25;;
11539;SDS011;5826;54.756;9.192;2023-12-29T07:53:41;25.48;;;6.10;;
11539;SDS011;5826;54.756;9.192;2023-12-29T07:56:07;20.38;;;4.93;;
11539;SDS011;5826;54.756;9.192;2023-12-29T07:58:32;23.67;;;5.63;;
11539;SDS011;5826;54.756;9.192;2023-12-29T08:00:58;24.13;;;6.07;;
11539;SDS011;5826;54.756;9.192;2023-12-29T08:03:23;23.70;;;5.35;;
11539;SDS011;5826;54.756;9.192;2023-12-29T08:05:48;19.73;;;5.10;;
11539;SDS011;5826;54.756;9.192;2023-12-29T08:08:14;26.95;;;5.50;;
11539;SDS011;5826;54.756;9.192;2023-12-29T08:10:40;20.27;;;5.18;;
11539;SDS011;5826;54.756;9.192;2023-12-29T08:13:05;16.70;;;5.03;;
11539;SDS011;5826;54.756;9.192;2023-12-29T08:15:34;26.65;;;5.80;;
11539;SDS011;5826;54.756;9.192;2023-12-29T08:17:59;24.25;;;5.05;;
11539;SDS011;5826;54.756;9.192;2023-12-29T08:20:24;17.92;;;5.05;;
11539;SDS011;5826;54.756;9.192;2023-12-29T08:22:50;23.42;;;5.45;;
11539;SDS011;5826;54.756;9.192;2023-12-29T08:25:15;21.40;;;5.43;;
11539;SDS011;5826;54.756;9.192;2023-12-29T08:27:41;23.33;;;5.25;;
11539;SDS011;5826;54.756;9.192;2023-12-29T08:30:07;26.63;;;5.65;;
11539;SDS011;5826;54.756;9.192;2023-12-29T08:32:33;23.60;;;5.45;;
11539;SDS011;5826;54.756;9.192;2023-12-29T08:34:58;19.77;;;4.95;;
11539;SDS011;5826;54.756;9.192;2023-12-29T08:37:24;24.60;;;6.22;;
11539;SDS011;5826;54.756;9.192;2023-12-29T08:39:49;21.15;;;5.72;;
11539;SDS011;5826;54.756;9.192;2023-12-29T08:42:15;19.58;;;5.10;;
11539;SDS011;5826;54.756;9.192;2023-12-29T08:44:41;26.67;;;6.03;;
11539;SDS011;5826;54.756;9.192;2023-12-29T08:47:07;29.27;;;6.70;;
11539;SDS011;5826;54.756;9.192;2023-12-29T08:49:34;23.48;;;5.65;;
11539;SDS011;5826;54.756;9.192;2023-12-29T08:52:03;30.60;;;6.93;;
11539;SDS011;5826;54.756;9.192;2023-12-29T08:54:29;23.67;;;5.70;;
11539;SDS011;5826;54.756;9.192;2023-12-29T08:56:54;24.98;;;6.13;;
11539;SDS011;5826;54.756;9.192;2023-12-29T08:59:20;26.38;;;6.45;;
11539;SDS011;5826;54.756;9.192;2023-12-29T09:01:45;24.33;;;5.57;;
11539;SDS011;5826;54.756;9.192;2023-12-29T09:04:12;25.70;;;5.85;;
11539;SDS011;5826;54.756;9.192;2023-12-29T09:06:37;26.85;;;6.00;;
11539;SDS011;5826;54.756;9.192;2023-12-29T09:09:03;24.55;;;5.88;;
11539;SDS011;5826;54.756;9.192;2023-12-29T09:11:28;24.88;;;5.70;;
11539;SDS011;5826;54.756;9.192;2023-12-29T09:13:54;22.42;;;5.82;;
11539;SDS011;5826;54.756;9.192;2023-12-29T09:16:19;27.35;;;5.55;;
11539;SDS011;5826;54.756;9.192;2023-12-29T09:18:45;26.25;;;5.68;;
11539;SDS011;5826;54.756;9.192;2023-12-29T09:21:10;23.95;;;5.45;;
11539;SDS011;5826;54.756;9.192;2023-12-29T09:23:37;21.75;;;5.40;;
11539;SDS011;5826;54.756;9.192;2023-12-29T09:26:03;25.90;;;6.05;;
11539;SDS011;5826;54.756;9.192;2023-12-29T09:28:30;25.95;;;5.75;;
11539;SDS011;5826;54.756;9.192;2023-12-29T09:30:57;28.50;;;5.78;;
11539;SDS011;5826;54.756;9.192;2023-12-29T09:33:23;19.15;;;4.68;;
11539;SDS011;5826;54.756;9.192;2023-12-29T09:35:49;28.27;;;6.63;;
11539;SDS011;5826;54.756;9.192;2023-12-29T09:38:15;25.20;;;5.97;;
11539;SDS011;5826;54.756;9.192;2023-12-29T09:40:41;23.15;;;5.50;;
11539;SDS011;5826;54.756;9.192;2023-12-29T09:43:07;22.77;;;5.05;;
11539;SDS011;5826;54.756;9.192;2023-12-29T09:45:34;20.15;;;4.78;;
11539;SDS011;5826;54.756;9.192;2023-12-29T09:48:07;19.65;;;5.40;;
11539;SDS011;5826;54.756;9.192;2023-12-29T09:50:34;25.40;;;5.75;;
11539;SDS011;5826;54.756;9.192;2023-12-29T09:53:01;15.75;;;4.95;;
11539;SDS011;5826;54.756;9.192;2023-12-29T09:55:27;21.40;;;4.97;;
11539;SDS011;5826;54.756;9.192;2023-12-29T09:57:53;17.48;;;4.55;;
11539;SDS011;5826;54.756;9.192;2023-12-29T10:00:20;17.98;;;4.43;;
11539;SDS011;5826;54.756;9.192;2023-12-29T10:02:46;17.20;;;4.35;;
11539;SDS011;5826;54.756;9.192;2023-12-29T10:05:12;19.85;;;4.20;;
11539;SDS011;5826;54.756;9.192;2023-12-29T10:07:38;21.85;;;4.30;;
11539;SDS011;5826;54.756;9.192;2023-12-29T10:10:05;22.05;;;5.72;;
11539;SDS011;5826;54.756;9.192;2023-12-29T10:12:33;28.17;;;5.55;;
11539;SDS011;5826;54.756;9.192;2023-12-29T10:20:43;27.60;;;6.40;;
11539;SDS011;5826;54.756;9.192;2023-12-29T10:25:43;21.70;;;5.60;;
11539;SDS011;5826;54.756;9.192;2023-12-29T10:28:10;22.73;;;4.93;;
11539;SDS011;5826;54.756;9.192;2023-12-29T10:30:36;23.25;;;6.05;;
11539;SDS011;5826;54.756;9.192;2023-12-29T10:33:05;18.15;;;4.85;;
11539;SDS011;5826;54.756;9.192;2023-12-29T10:35:32;19.08;;;4.70;;
11539;SDS011;5826;54.756;9.192;2023-12-29T10:38:12;14.93;;;3.75;;
11539;SDS011;5826;54.756;9.192;2023-12-29T10:40:39;15.50;;;4.05;;
11539;SDS011;5826;54.756;9.192;2023-12-29T10:43:08;14.02;;;3.97;;
11539;SDS011;5826;54.756;9.192;2023-12-29T10:45:34;14.25;;;3.42;;
11539;SDS011;5826;54.756;9.192;2023-12-29T10:48:03;13.23;;;3.20;;
11539;SDS011;5826;54.756;9.192;2023-12-29T10:50:29;13.60;;;3.28;;
11539;SDS011;5826;54.756;9.192;2023-12-29T10:53:10;15.77;;;3.72;;
11539;SDS011;5826;54.756;9.192;2023-12-29T10:55:39;16.42;;;4.15;;
11539;SDS011;5826;54.756;9.192;2023-12-29T10:58:05;17.00;;;4.03;;
11539;SDS011;5826;54.756;9.192;2023-12-29T11:00:30;15.52;;;3.75;;
11539;SDS011;5826;54.756;9.192;2023-12-29T11:02:57;18.58;;;4.68;;
11539;SDS011;5826;54.756;9.192;2023-12-29T11:05:26;20.75;;;4.93;;
11539;SDS011;5826;54.756;9.192;2023-12-29T11:07:53;21.35;;;4.78;;
11539;SDS011;5826;54.756;9.192;2023-12-29T11:10:20;18.17;;;4.68;;
11539;SDS011;5826;54.756;9.192;2023-12-29T11:12:47;18.33;;;4.57;;
11539;SDS011;5826;54.756;9.192;2023-12-29T11:15:13;23.80;;;5.00;;
11539;SDS011;5826;54.756;9.192;2023-12-29T11:17:41;17.73;;;4.40;;
11539;SDS011;5826;54.756;9.192;2023-12-29T11:20:17;18.13;;;4.10;;
11539;SDS011;5826;54.756;9.192;2023-12-29T11:22:42;18.30;;;4.85;;
11539;SDS011;5826;54.756;9.192;2023-12-29T11:25:10;19.70;;;4.38;;
11539;SDS011;5826;54.756;9.192;2023-12-29T11:27:37;19.50;;;4.20;;
11539;SDS011;5826;54.756;9.192;2023-12-29T11:30:03;19.83;;;4.18;;
11539;SDS011;5826;54.756;9.192;2023-12-29T11:38:09;21.10;;;4.80;;
11539;SDS011;5826;54.756;9.192;2023-12-29T11:40:41;24.23;;;5.25;;
11539;SDS011;5826;54.756;9.192;2023-12-29T11:43:16;17.63;;;4.63;;
11539;SDS011;5826;54.756;9.192;2023-12-29T11:45:43;23.30;;;5.40;;
11539;SDS011;5826;54.756;9.192;2023-12-29T11:48:09;13.27;;;4.03;;
11539;SDS011;5826;54.756;9.192;2023-12-29T11:50:36;17.00;;;4.40;;
11539;SDS011;5826;54.756;9.192;2023-12-29T11:53:05;19.98;;;4.25;;
11539;SDS011;5826;54.756;9.192;2023-12-29T11:55:33;15.88;;;4.38;;
11539;SDS011;5826;54.756;9.192;2023-12-29T11:58:03;25.45;;;7.85;;
11539;SDS011;5826;54.756;9.192;2023-12-29T12:03:24;18.23;;;5.18;;
11539;SDS011;5826;54.756;9.192;2023-12-29T12:05:52;21.75;;;4.78;;
11539;SDS011;5826;54.756;9.192;2023-12-29T12:08:37;20.77;;;5.40;;
11539;SDS011;5826;54.756;9.192;2023-12-29T12:11:41;16.20;;;4.85;;
11539;SDS011;5826;54.756;9.192;2023-12-29T12:14:04;16.02;;;3.85;;
11539;SDS011;5826;54.756;9.192;2023-12-29T12:19:09;15.85;;;3.47;;
11539;SDS011;5826;54.756;9.192;2023-12-29T12:21:35;19.48;;;4.03;;
11539;SDS011;5826;54.756;9.192;2023-12-29T12:24:03;20.67;;;4.70;;
11539;SDS011;5826;54.756;9.192;2023-12-29T12:26:30;20.80;;;5.85;;
11539;SDS011;5826;54.756;9.192;2023-12-29T12:28:56;16.80;;;4.78;;
11539;SDS011;5826;54.756;9.192;2023-12-29T12:31:22;16.48;;;4.95;;
11539;SDS011;5826;54.756;9.192;2023-12-29T12:33:57;27.83;;;10.02;;
11539;SDS011;5826;54.756;9.192;2023-12-29T12:36:25;22.23;;;5.82;;
11539;SDS011;5826;54.756;9.192;2023-12-29T12:38:54;20.30;;;6.18;;
11539;SDS011;5826;54.756;9.192;2023-12-29T12:41:21;16.65;;;6.13;;
11539;SDS011;5826;54.756;9.192;2023-12-29T12:43:59;16.38;;;5.70;;
11539;SDS011;5826;54.756;9.192;2023-12-29T12:46:35;21.02;;;5.35;;
11539;SDS011;5826;54.756;9.192;2023-12-29T12:49:05;25.52;;;6.35;;
11539;SDS011;5826;54.756;9.192;2023-12-29T12:51:32;18.20;;;5.05;;
11539;SDS011;5826;54.756;9.192;2023-12-29T12:53:58;16.42;;;4.47;;
11539;SDS011;5826;54.756;9.192;2023-12-29T12:56:24;20.88;;;5.20;;
11539;SDS011;5826;54.756;9.192;2023-12-29T12:58:52;15.60;;;5.65;;
11539;SDS011;5826;54.756;9.192;2023-12-29T13:01:26;18.70;;;5.60;;
11539;SDS011;5826;54.756;9.192;2023-12-29T13:03:53;20.45;;;6.10;;
11539;SDS011;5826;54.756;9.192;2023-12-29T13:06:19;16.92;;;5.50;;
11539;SDS011;5826;54.756;9.192;2023-12-29T13:08:47;15.95;;;3.90;;
11539;SDS011;5826;54.756;9.192;2023-12-29T13:11:18;19.55;;;5.47;;
11539;SDS011;5826;54.756;9.192;2023-12-29T13:13:46;14.43;;;5.50;;
11539;SDS011;5826;54.756;9.192;2023-12-29T13:16:12;17.38;;;4.82;;
11539;SDS011;5826;54.756;9.192;2023-12-29T13:18:41;16.13;;;4.75;;
11539;SDS011;5826;54.756;9.192;2023-12-29T13:21:06;23.30;;;5.50;;
11539;SDS011;5826;54.756;9.192;2023-12-29T13:23:34;19.77;;;4.78;;
11539;SDS011;5826;54.756;9.192;2023-12-29T13:26:05;16.30;;;4.18;;
11539;SDS011;5826;54.756;9.192;2023-12-29T13:28:32;20.35;;;5.97;;
11539;SDS011;5826;54.756;9.192;2023-12-29T13:30:59;18.40;;;5.03;;
11539;SDS011;5826;54.756;9.192;2023-12-29T13:33:33;12.30;;;4.13;;
11539;SDS011;5826;54.756;9.192;2023-12-29T13:36:28;16.52;;;3.65;;
11539;SDS011;5826;54.756;9.192;2023-12-29T13:39:05;16.27;;;3.97;;
11539;SDS011;5826;54.756;9.192;2023-12-29T13:41:41;16.00;;;3.97;;
11539;SDS011;5826;54.756;9.192;2023-12-29T13:44:08;14.82;;;3.92;;
11539;SDS011;5826;54.756;9.192;2023-12-29T13:46:34;16.23;;;4.38;;
11539;SDS011;5826;54.756;9.192;2023-12-29T13:49:00;19.48;;;4.47;;
11539;SDS011;5826;54.756;9.192;2023-12-29T13:51:27;20.20;;;4.82;;
11539;SDS011;5826;54.756;9.192;2023-12-29T13:53:59;16.80;;;4.50;;
11539;SDS011;5826;54.756;9.192;2023-12-29T13:56:26;17.27;;;3.75;;
11539;SDS011;5826;54.756;9.192;2023-12-29T13:58:51;18.73;;;4.10;;
11539;SDS011;5826;54.756;9.192;2023-12-29T14:01:17;18.50;;;4.57;;
11539;SDS011;5826;54.756;9.192;2023-12-29T14:03:46;15.27;;;3.70;;
11539;SDS011;5826;54.756;9.192;2023-12-29T14:06:27;15.27;;;4.57;;
11539;SDS011;5826;54.756;9.192;2023-12-29T14:09:16;18.00;;;4.75;;
11539;SDS011;5826;54.756;9.192;2023-12-29T14:11:46;14.10;;;3.97;;
11539;SDS011;5826;54.756;9.192;2023-12-29T14:14:12;15.05;;;3.45;;
11539;SDS011;5826;54.756;9.192;2023-12-29T14:16:39;20.63;;;3.63;;
11539;SDS011;5826;54.756;9.192;2023-12-29T14:19:08;17.88;;;3.50;;
11539;SDS011;5826;54.756;9.192;2023-12-29T14:21:33;15.65;;;4.20;;
11539;SDS011;5826;54.756;9.192;2023-12-29T14:24:09;13.45;;;3.65;;
11539;SDS011;5826;54.756;9.192;2023-12-29T14:26:39;19.15;;;3.80;;
11539;SDS011;5826;54.756;9.192;2023-12-29T14:29:18;20.40;;;3.97;;
11539;SDS011;5826;54.756;9.192;2023-12-29T14:31:45;20.08;;;4.78;;
11539;SDS011;5826;54.756;9.192;2023-12-29T14:34:12;16.02;;;4.30;;
11539;SDS011;5826;54.756;9.192;2023-12-29T14:36:39;16.33;;;4.10;;
11539;SDS011;5826;54.756;9.192;2023-12-29T14:39:06;23.88;;;4.68;;
11539;SDS011;5826;54.756;9.192;2023-12-29T14:41:32;14.48;;;4.07;;
11539;SDS011;5826;54.756;9.192;2023-12-29T14:43:58;21.88;;;4.85;;
11539;SDS011;5826;54.756;9.192;2023-12-29T14:46:24;18.67;;;5.13;;
11539;SDS011;5826;54.756;9.192;2023-12-29T14:48:51;17.58;;;4.38;;
11539;SDS011;5826;54.756;9.192;2023-12-29T14:51:17;20.98;;;4.68;;
11539;SDS011;5826;54.756;9.192;2023-12-29T14:53:44;22.60;;;5.57;;
11539;SDS011;5826;54.756;9.192;2023-12-29T14:56:10;20.55;;;4.40;;
11539;SDS011;5826;54.756;9.192;2023-12-29T14:58:36;24.30;;;5.55;;
11539;SDS011;5826;54.756;9.192;2023-12-29T15:01:01;24.40;;;5.90;;
11539;SDS011;5826;54.756;9.192;2023-12-29T15:03:28;23.33;;;6.13;;
11539;SDS011;5826;54.756;9.192;2023-12-29T15:05:54;16.80;;;4.53;;